Potter, Nebraska
Current Conditions -  °F | °C
As of 12:15 AM on Thursday 23 Oct 2014 (Local Time) from KIBM Reporting Station
Clear Clear  
Wind Chill: 36°   Ceiling: Unl
Heat Index: 40°   Visibility: 10mi
Dew Point: 35°   Wind: 5mph
Humidity: 82%   Direction: 250°WSW
Pressure: 30.11"   Gusts: NA
Location:  41.22°N, 103.32°W
Report Text: KIBM 230615Z AUTO 25004KT 10SM CLR 04/01 A3011 RMK AO2 T00420014
Loading
Personal Weather Stations






























Interactive Weather Map
Tropical Storm Tracking
New forecast layout! Learn more

10-Day Weather Forecast

Advertisements
Track Severe Weather on mobile